EW5589 Weather Reports


Display with metric or nautical units.
time (UTC)temp
F
wind
direction
speed
MPH
gust
MPH
rain 1hr
in
rain 24hr
in
rain mn
in
humidity
%
barometer
mb
20210124194633 23 72 5.0 9.0 0.00 0.00 0.00 70 1024.5
20210124193033 24 72 4.0 7.0 0.00 0.00 0.00 69 1024.6
20210124191522 24 34 4.0 8.0 0.00 0.00 0.00 69 1024.7
20210124190125 24 74 4.0 8.0 0.00 0.00 0.00 68 1024.9
20210124184633 24 14 3.0 7.0 0.00 0.00 0.00 68 1025.0
20210124183101 23 72 2.0 5.0 0.00 0.00 0.00 68 1025.2
20210124181551 23 75 4.0 7.0 0.00 0.00 0.00 68 1025.4
20210124180041 24 91 3.0 7.0 0.00 0.00 0.00 67 1025.7
20210124174538 24 92 1.0 3.0 0.00 0.00 0.00 65 1026.0
20210124173047 24 86 3.0 6.0 0.00 0.00 0.00 63 1026.3
20210124171535 24 74 2.0 5.0 0.00 0.00 0.00 64 1026.6
20210124170022 23 46 2.0 6.0 0.00 0.00 0.00 67 1026.8
20210124164615 23 1 2.0 6.0 0.00 0.00 0.00 66 1026.9
20210124163209 23 326 1.0 5.0 0.00 0.00 0.00 67 1027.2
20210124161828 24 1 1.0 5.0 0.00 0.00 0.00 68 1027.4
20210124160115 24 78 3.0 6.0 0.00 0.00 0.00 68 1027.6
20210124154623 24 43 1.0 6.0 0.00 0.00 0.00 67 1027.8
20210124153101 24 2 0.0 6.0 0.00 0.00 0.00 67 1027.9
20210124151608 23 60 1.0 8.0 0.00 0.00 0.00 69 1027.9
20210124150127 24 325 2.0 6.0 0.00 0.00 0.00 66 1027.9
20210124144642 25 1 2.0 6.0 0.00 0.00 0.00 65 1027.8
20210124143046 23 75 3.0 7.0 0.00 0.00 0.00 68 1027.7
20210124141550 23 59 1.0 4.0 0.00 0.00 0.00 69 1027.8
20210124140036 21 26 2.0 6.0 0.00 0.00 0.00 71 1027.9
20210124134531 20 44 1.0 4.0 0.00 0.00 0.00 72 1028.0
20210124133349 20 319 1.0 6.0 0.00 0.00 0.00 72 1028.1
20210124131700 20 298 2.0 6.0 0.00 0.00 0.00 74 1028.0
20210124130131 19 327 2.0 5.0 0.00 0.00 0.00 73 1028.1
20210124124640 19 313 1.0 5.0 0.00 0.00 0.00 73 1028.1
20210124123041 19 355 1.0 4.0 0.00 0.00 0.00 73 1028.0
20210124121552 20 255 1.0 7.0 0.00 0.00 0.00 73 1027.9
20210124120115 20 25 1.0 5.0 0.00 0.00 0.00 72 1027.8
20210124114639 20 310 2.0 6.0 0.00 0.00 0.00 70 1028.0
20210124113205 20 308 2.0 8.0 0.00 0.00 0.00 69 1027.9
20210124111611 20 302 2.0 4.0 0.00 0.00 0.00 71 1027.8
20210124110034 20 340 2.0 7.0 0.00 0.00 0.00 70 1027.9
20210124104605 20 260 3.0 8.0 0.00 0.00 0.00 70 1027.9
20210124103035 21 321 2.0 8.0 0.00 0.00 0.00 70 1027.9
20210124101520 21 329 2.0 7.0 0.00 0.00 0.00 71 1027.8
20210124100121 21 291 2.0 9.0 0.00 0.00 0.00 71 1027.7
20210124094633 21 301 3.0 9.0 0.00 0.00 0.00 68 1027.7
20210124093106 21 321 2.0 10.0 0.00 0.00 0.00 69 1027.6
20210124091705 21 283 2.0 9.0 0.00 0.00 0.00 70 1027.7
20210124090031 21 301 3.0 11.0 0.00 0.00 0.00 70 1027.8
20210124084535 21 339 5.0 10.0 0.00 0.00 0.00 69 1027.8
20210124081608 21 286 4.0 9.0 0.00 0.00 0.00 69 1027.7
20210124080121 21 266 3.0 10.0 0.00 0.00 0.00 70 1027.7
20210124074631 21 317 4.0 10.0 0.00 0.00 0.00 69 1027.7
20210124073117 21 338 6.0 12.0 0.00 0.00 0.00 66 1027.5
20210124071632 22 266 4.0 11.0 0.00 0.00 0.00 66 1027.5
20210124070053 22 327 4.0 12.0 0.00 0.00 0.00 63 1027.4
20210124064641 22 264 6.0 14.0 0.00 0.00 0.00 63 1027.2
20210124063050 22 298 4.0 12.0 0.00 0.00 0.00 63 1027.2
20210124061537 22 269 6.0 15.0 0.00 0.00 0.00 61 1027.1
20210124060116 22 290 7.0 16.0 0.00 0.00 0.00 59 1027.2
20210124054520 22 247 5.0 15.0 0.00 0.00 0.00 59 1027.1
20210124053007 22 254 4.0 16.0 0.00 0.00 0.00 58 1027.3
20210124051646 22 252 5.0 14.0 0.00 0.00 0.00 61 1027.4
20210124050059 23 265 5.0 15.0 0.00 0.00 0.00 60 1027.4
20210124044523 23 288 5.0 14.0 0.00 0.00 0.00 60 1027.5
20210124043041 23 312 7.0 14.0 0.00 0.00 0.00 62 1027.5
20210124041521 23 255 8.0 17.0 0.00 0.00 0.00 58 1027.3
20210124040147 23 324 5.0 14.0 0.00 0.00 0.00 55 1027.3
20210124034621 23 305 7.0 19.0 0.00 0.00 0.00 59 1027.2
20210124033121 23 298 8.0 19.0 0.00 0.00 0.00 57 1027.2
20210124031545 23 356 6.0 20.0 0.00 0.00 0.00 55 1027.2
20210124030028 23 274 6.0 19.0 0.00 0.00 0.00 63 1027.1
20210124024635 23 296 6.0 15.0 0.00 0.00 0.00 64 1027.2
20210124023157 23 295 6.0 13.0 0.00 0.00 0.00 67 1027.0
20210124021633 24 285 7.0 15.0 0.00 0.00 0.00 65 1027.0
20210124020338 24 269 9.0 18.0 0.00 0.00 0.00 66 1026.9
20210124014644 24 300 9.0 17.0 0.00 0.00 0.00 69 1026.8
20210124013048 23 247 6.0 14.0 0.00 0.00 0.00 69 1026.8
20210124011526 23 327 8.0 18.0 0.00 0.00 0.00 70 1026.7
20210124010028 23 307 8.0 16.0 0.00 0.00 0.00 70 1026.7
20210124004520 23 259 8.0 19.0 0.00 0.00 0.00 71 1026.6
20210124001519 22 259 8.0 17.0 0.00 0.00 0.00 67 1026.5
20210124000024 22 288 7.0 16.0 0.00 0.00 0.00 70 1026.3
20210123234526 22 268 10.0 16.0 0.00 0.00 0.00 71 1026.3
20210123233232 22 307 9.0 17.0 0.00 0.00 0.00 72 1026.3
20210123231644 22 293 9.0 18.0 0.00 0.00 0.00 75 1026.1
20210123230152 23 285 8.0 16.0 0.00 0.00 0.00 74 1026.0
20210123224648 22 271 4.0 12.0 0.00 0.00 0.00 75 1025.8
20210123223150 22 259 4.0 11.0 0.00 0.00 0.00 76 1025.7
20210123221605 22 300 5.0 10.0 0.00 0.00 0.00 77 1025.4
20210123220149 22 250 6.0 12.0 0.00 0.00 0.00 75 1025.3
20210123214615 22 256 5.0 13.0 0.00 0.00 0.00 76 1025.4
20210123213121 21 284 7.0 12.0 0.00 0.00 0.00 77 1025.2
20210123211557 21 262 7.0 12.0 0.00 0.00 0.00 84 1025.1
20210123210058 20 248 7.0 12.0 0.00 0.00 0.00 84 1025.0
20210123204528 21 233 9.0 15.0 0.00 0.00 0.00 80 1025.0
20210123203028 21 262 8.0 14.0 0.00 0.00 0.00 79 1025.1
20210123201626 21 270 5.0 11.0 0.00 0.00 0.00 77 1025.0
20210123200238 21 278 6.0 11.0 0.00 0.00 0.00 76 1024.9